Time;durP1;ratioP1;P1;durP2;ratioP2;P2;SDS_P1;SDS_P2;PMS_P1;PMS_P2;Temp;Humidity;BMP_temperature;BMP_pressure;BME280_temperature;BME280_humidity;BME280_pressure;Samples;Min_cycle;Max_cycle;Signal;HPM_P1;HPM_P2
2021/12/12 00:01:17;;;;;;;47.55;23.60;;;;;;;4.69;100.00;101877.78;2629178;36;20321;-76
2021/12/12 00:03:56;;;;;;;48.75;24.27;;;;;;;4.62;100.00;101889.66;2610936;31;20559;-75
2021/12/12 00:06:28;;;;;;;53.50;23.33;;;;;;;4.59;100.00;101897.81;2646872;36;20012;-75
2021/12/12 00:09:20;;;;;;;42.15;20.55;;;;;;;4.64;100.00;101887.78;2611457;36;20061;-75
2021/12/12 00:11:49;;;;;;;41.22;23.60;;;;;;;4.65;100.00;101894.84;2629559;36;20142;-75
2021/12/12 00:14:25;;;;;;;53.08;23.67;;;;;;;4.67;100.00;101890.34;2630229;36;20053;-74
2021/12/12 00:17:00;;;;;;;42.63;21.48;;;;;;;4.70;100.00;101874.19;2611790;36;20525;-75
2021/12/12 00:19:37;;;;;;;49.63;24.33;;;;;;;4.70;100.00;101882.19;2612555;31;20030;-75
2021/12/12 00:22:18;;;;;;;49.00;23.38;;;;;;;4.62;100.00;101884.34;2625112;36;20078;-74
2021/12/12 00:24:53;;;;;;;44.15;21.30;;;;;;;4.69;100.00;101875.13;2613621;31;20586;-77
2021/12/12 00:46:43;;;;;;;43.25;19.23;;;;;;;5.02;100.00;101864.63;2607467;54;20065;-76
2021/12/12 00:49:37;;;;;;;37.50;18.20;;;;;;;4.93;100.00;101864.19;2626515;36;20039;-76
2021/12/12 00:52:08;;;;;;;37.28;17.40;;;;;;;4.98;100.00;101859.53;2628743;36;20042;-77
2021/12/12 00:54:38;;;;;;;36.38;18.10;;;;;;;4.97;100.00;101853.31;2608812;36;20072;-75
2021/12/12 00:57:10;;;;;;;35.65;17.27;;;;;;;5.07;100.00;101848.38;2610322;36;20149;-77
2021/12/12 00:59:38;;;;;;;35.97;17.35;;;;;;;5.07;100.00;101859.91;2610199;36;20129;-76
2021/12/12 01:04:54;;;;;;;45.35;17.98;;;;;;;5.05;100.00;101848.47;2606207;36;20030;-75
2021/12/12 01:29:05;;;;;;;39.65;18.10;;;;;;;5.00;100.00;101829.13;2607959;36;20398;-76
2021/12/12 01:31:53;;;;;;;41.70;18.77;;;;;;;4.98;100.00;101835.50;2625101;36;20031;-75
2021/12/12 01:34:29;;;;;;;39.95;17.40;;;;;;;5.02;100.00;101837.06;2608147;36;20038;-74
2021/12/12 01:37:11;;;;;;;36.30;16.05;;;;;;;5.11;100.00;101830.41;2608076;36;20034;-74
2021/12/12 01:39:45;;;;;;;36.90;17.15;;;;;;;5.04;100.00;101835.19;2607977;31;22041;-75
2021/12/12 01:42:26;;;;;;;35.47;17.30;;;;;;;5.07;100.00;101835.03;2607589;36;20125;-74
2021/12/12 01:45:00;;;;;;;27.35;14.15;;;;;;;5.04;100.00;101838.72;2608297;36;20698;-74
2021/12/12 01:47:34;;;;;;;37.70;17.20;;;;;;;5.00;100.00;101833.63;2608427;36;20470;-74
2021/12/12 01:59:38;;;;;;;34.20;15.45;;;;;;;5.08;100.00;101834.97;2606104;36;20086;-74
2021/12/12 02:02:14;;;;;;;40.17;17.40;;;;;;;5.05;100.00;101835.13;2607828;36;20122;-74
2021/12/12 02:04:48;;;;;;;42.15;17.67;;;;;;;5.05;100.00;101828.91;2625055;36;20588;-74
2021/12/12 02:07:23;;;;;;;33.08;15.80;;;;;;;5.14;100.00;101831.13;2608147;36;20062;-74
2021/12/12 02:09:53;;;;;;;36.65;16.10;;;;;;;5.10;100.00;101824.22;2607998;36;20034;-74
2021/12/12 02:12:23;;;;;;;29.77;14.82;;;;;;;5.17;100.00;101838.97;2607892;36;20164;-74
2021/12/12 02:14:58;;;;;;;29.88;15.57;;;;;;;5.18;100.00;101830.03;2607753;36;20087;-73
2021/12/12 02:17:35;;;;;;;34.28;15.38;;;;;;;5.12;100.00;101830.31;2608266;36;20576;-75
2021/12/12 02:20:15;;;;;;;46.38;16.67;;;;;;;5.18;100.00;101835.38;2608330;36;20043;-74
2021/12/12 02:23:13;;;;;;;39.55;17.33;;;;;;;5.13;100.00;101810.72;2625532;36;20112;-74
2021/12/12 02:40:01;;;;;;;39.30;16.67;;;;;;;5.09;100.00;101806.47;2607105;36;20034;-73
2021/12/12 02:42:30;;;;;;;40.55;19.10;;;;;;;5.09;100.00;101814.47;2625316;36;20038;-74
2021/12/12 02:45:00;;;;;;;42.10;17.73;;;;;;;5.13;100.00;101804.53;2607888;36;20142;-75
2021/12/12 02:50:08;;;;;;;28.90;16.55;;;;;;;5.22;100.00;101802.22;2610759;54;20050;-74
2021/12/12 02:52:38;;;;;;;38.83;18.38;;;;;;;5.06;100.00;101798.63;2627525;36;20114;-75
2021/12/12 02:55:13;;;;;;;37.88;20.63;;;;;;;5.10;100.00;101800.19;2609724;36;20042;-75
2021/12/12 02:57:43;;;;;;;37.85;20.23;;;;;;;5.05;100.00;101789.75;2610434;36;20042;-75
2021/12/12 03:00:18;;;;;;;39.55;18.48;;;;;;;5.14;100.00;101799.09;2610191;36;20035;-76
2021/12/12 03:02:48;;;;;;;36.42;20.35;;;;;;;5.11;100.00;101793.94;2610773;31;20561;-73
2021/12/12 03:05:21;;;;;;;51.00;22.80;;;;;;;5.09;100.00;101795.78;2609176;36;20038;-75
2021/12/12 03:07:49;;;;;;;40.63;19.20;;;;;;;5.12;100.00;101787.63;2610813;36;20046;-74
2021/12/12 03:10:28;;;;;;;33.78;18.75;;;;;;;5.17;100.00;101780.25;2610403;36;20122;-74
2021/12/12 03:12:57;;;;;;;41.78;20.70;;;;;;;5.12;100.00;101776.94;2610712;36;20058;-73
2021/12/12 03:15:33;;;;;;;42.40;18.95;;;;;;;5.14;100.00;101779.53;2628875;36;20141;-74
2021/12/12 03:18:25;;;;;;;31.42;19.00;;;;;;;5.17;100.00;101784.75;2610265;36;20122;-74
2021/12/12 03:21:00;;;;;;;36.17;19.17;;;;;;;5.15;100.00;101775.94;2610429;36;20046;-74
2021/12/12 03:23:35;;;;;;;36.55;22.30;;;;;;;5.06;100.00;101770.16;2610746;36;20423;-74
2021/12/12 03:26:12;;;;;;;31.42;19.67;;;;;;;5.13;100.00;101783.16;2610625;36;20030;-73
2021/12/12 03:28:51;;;;;;;31.15;18.92;;;;;;;5.23;100.00;101784.44;2611337;31;20554;-72
2021/12/12 03:31:22;;;;;;;35.90;22.77;;;;;;;5.20;100.00;101780.09;2610438;36;20541;-72
2021/12/12 03:33:51;;;;;;;39.40;22.33;;;;;;;5.18;100.00;101783.78;2611298;36;20065;-74
2021/12/12 03:36:21;;;;;;;37.33;23.27;;;;;;;5.21;100.00;101781.84;2608923;36;20050;-73
2021/12/12 05:44:46;;;;;;;54.17;32.38;;;;;;;5.92;100.00;101761.22;2611120;36;20042;-72
2021/12/12 05:47:15;;;;;;;53.75;29.15;;;;;;;6.00;100.00;101755.50;2628367;36;20117;-72
2021/12/12 05:49:44;;;;;;;54.58;29.42;;;;;;;6.02;100.00;101766.94;2611476;36;20118;-72
2021/12/12 05:52:15;;;;;;;55.50;31.13;;;;;;;6.04;100.00;101757.03;2611947;36;20680;-72
2021/12/12 05:54:54;;;;;;;58.85;31.73;;;;;;;6.03;100.00;101771.34;2610064;36;20166;-73
2021/12/12 05:57:27;;;;;;;56.10;30.08;;;;;;;6.07;100.00;101759.56;2611329;36;20166;-72
2021/12/12 05:59:59;;;;;;;60.08;30.27;;;;;;;6.12;100.00;101774.38;2610430;36;20057;-72
2021/12/12 06:02:29;;;;;;;64.50;34.83;;;;;;;6.17;100.00;101768.78;2611227;36;20037;-73
2021/12/12 06:04:59;;;;;;;60.70;30.05;;;;;;;6.19;100.00;101769.53;2610604;36;21091;-71
2021/12/12 06:07:29;;;;;;;59.70;32.35;;;;;;;6.14;100.00;101766.28;2610193;36;20179;-72
2021/12/12 06:09:57;;;;;;;61.90;30.33;;;;;;;6.22;100.00;101772.03;2610483;36;20038;-72
2021/12/12 06:12:27;;;;;;;60.08;32.17;;;;;;;6.23;100.00;101781.81;2609430;36;20181;-72
2021/12/12 06:14:58;;;;;;;;;;;;;;;6.22;100.00;101782.75;2629523;36;20089;-72
2021/12/12 06:17:55;;;;;;;70.97;36.55;;;;;;;6.20;100.00;101781.97;2610518;36;20653;-71
2021/12/12 06:23:36;;;;;;;82.10;38.60;;;;;;;6.24;100.00;101785.31;2626697;36;20459;-72
2021/12/12 06:29:31;;;;;;;77.45;37.80;;;;;;;6.35;100.00;101800.78;2645877;36;20034;-72
2021/12/12 06:32:02;;;;;;;75.20;35.95;;;;;;;6.36;100.00;101808.72;2609384;36;20058;-74
2021/12/12 06:34:31;;;;;;;77.55;37.33;;;;;;;6.31;100.00;101808.97;2610385;36;20038;-72
2021/12/12 06:36:59;;;;;;;86.93;35.10;;;;;;;6.44;100.00;101801.13;2609906;36;20550;-73
2021/12/12 06:39:32;;;;;;;80.13;36.20;;;;;;;6.44;100.00;101802.94;2607731;36;20147;-72
2021/12/12 06:42:00;;;;;;;84.40;37.47;;;;;;;6.45;100.00;101807.34;2608851;36;20466;-73
2021/12/12 06:44:29;;;;;;;95.88;41.00;;;;;;;6.48;100.00;101804.50;2610577;31;20130;-72
2021/12/12 06:46:59;;;;;;;89.93;42.85;;;;;;;6.51;100.00;101796.31;2609915;36;20639;-72
2021/12/12 06:49:30;;;;;;;81.30;33.78;;;;;;;6.60;100.00;101798.44;2609947;36;20089;-72
2021/12/12 06:52:02;;;;;;;83.18;35.38;;;;;;;6.65;100.00;101799.06;2610059;36;20090;-72
2021/12/12 06:54:32;;;;;;;95.82;38.55;;;;;;;6.62;100.00;101799.22;2610928;36;20084;-72
2021/12/12 06:57:02;;;;;;;92.40;38.45;;;;;;;6.65;100.00;101809.75;2611049;36;20546;-72
2021/12/12 07:00:00;;;;;;;98.10;39.88;;;;;;;6.64;100.00;101809.81;2609392;36;20566;-73
2021/12/12 07:02:30;;;;;;;101.67;39.80;;;;;;;6.61;100.00;101810.00;2608739;36;20149;-73
2021/12/12 07:05:05;;;;;;;91.28;38.03;;;;;;;6.71;100.00;101813.03;2609994;36;20318;-72
2021/12/12 07:07:34;;;;;;;90.63;36.30;;;;;;;6.65;100.00;101820.47;2609820;36;20462;-73
2021/12/12 07:10:11;;;;;;;94.55;36.83;;;;;;;6.71;100.00;101818.38;2609634;36;20157;-72
2021/12/12 07:12:48;;;;;;;91.13;37.83;;;;;;;6.79;100.00;101826.84;2608559;31;20664;-73
2021/12/12 07:16:03;;;;;;;95.60;38.92;;;;;;;6.77;100.00;101828.72;2609625;31;20056;-74
2021/12/12 07:18:34;;;;;;;101.85;38.13;;;;;;;6.78;100.00;101825.09;2609575;36;20031;-72
2021/12/12 07:21:08;;;;;;;87.35;36.55;;;;;;;6.77;100.00;101826.03;2610115;36;20118;-73
2021/12/12 07:23:37;;;;;;;102.43;40.33;;;;;;;6.78;100.00;101825.09;2610041;36;20065;-72
2021/12/12 07:26:10;;;;;;;100.03;37.97;;;;;;;6.78;100.00;101825.97;2608495;36;20161;-72
2021/12/12 07:28:40;;;;;;;112.60;42.40;;;;;;;6.74;100.00;101828.91;2610899;36;20061;-73
2021/12/12 07:31:12;;;;;;;114.00;42.22;;;;;;;6.81;100.00;101830.28;2609531;36;20030;-74
2021/12/12 07:33:41;;;;;;;89.63;37.67;;;;;;;6.88;100.00;101838.84;2627313;36;20035;-74
2021/12/12 07:36:35;;;;;;;115.85;40.60;;;;;;;6.88;100.00;101834.34;2627100;36;20065;-73
2021/12/12 07:39:09;;;;;;;118.55;45.05;;;;;;;6.80;100.00;101833.91;2608916;36;20037;-74
2021/12/12 07:41:39;;;;;;;110.72;38.70;;;;;;;6.91;100.00;101830.63;2610074;36;20749;-74
2021/12/12 07:44:29;;;;;;;103.78;42.88;;;;;;;6.94;100.00;101830.44;2610425;36;20038;-74
2021/12/12 07:46:59;;;;;;;112.40;42.10;;;;;;;7.04;100.00;101841.47;2611385;36;20088;-73
2021/12/12 07:49:32;;;;;;;127.35;43.53;;;;;;;6.98;100.00;101843.56;2611173;36;20030;-74
2021/12/12 07:52:05;;;;;;;121.13;44.20;;;;;;;7.11;100.00;101848.19;2611398;36;20100;-72
2021/12/12 07:57:20;;;;;;;123.28;42.17;;;;;;;7.04;100.00;101857.53;2609747;36;20419;-73
2021/12/12 07:59:55;;;;;;;143.60;46.38;;;;;;;7.09;100.00;101855.47;2607899;36;20069;-73
2021/12/12 08:02:25;;;;;;;131.98;43.95;;;;;;;7.08;100.00;101861.75;2608912;36;20074;-73
2021/12/12 08:05:09;;;;;;;163.15;50.67;;;;;;;7.03;100.00;101870.06;2626227;36;20100;-73
2021/12/12 08:07:45;;;;;;;146.18;44.58;;;;;;;7.13;100.00;101873.94;2609098;36;20488;-75
2021/12/12 08:10:16;;;;;;;139.27;44.08;;;;;;;7.17;100.00;101878.16;2608483;31;20035;-72
2021/12/12 08:12:46;;;;;;;150.48;48.53;;;;;;;7.19;100.00;101870.88;2608186;36;20051;-73
2021/12/12 08:15:15;;;;;;;163.38;48.83;;;;;;;7.20;100.00;101879.81;2610734;36;20045;-73
2021/12/12 08:17:44;;;;;;;162.48;48.55;;;;;;;7.25;100.00;101882.22;2609738;36;20126;-73
2021/12/12 08:20:15;;;;;;;147.68;45.40;;;;;;;7.35;100.00;101888.75;2610186;36;20117;-73
2021/12/12 08:23:39;;;;;;;166.13;49.85;;;;;;;7.29;100.00;101884.63;2609684;36;20843;-73
2021/12/12 08:26:11;;;;;;;172.40;46.28;;;;;;;7.31;100.00;101887.19;2608822;36;20134;-72
2021/12/12 08:28:42;;;;;;;160.02;50.30;;;;;;;7.32;100.00;101884.44;2609273;36;20197;-72
2021/12/12 08:31:10;;;;;;;166.55;52.78;;;;;;;7.28;100.00;101892.72;2609804;36;20535;-73
2021/12/12 08:37:09;;;;;;;;;;;;;;;7.46;100.00;101896.16;2645129;36;20038;-74
2021/12/12 08:39:38;;;;;;;181.30;48.20;;;;;;;7.47;100.00;101892.53;2606994;36;19985;-73
2021/12/12 08:45:00;;;;;;;191.48;48.72;;;;;;;7.45;100.00;101889.94;2606534;36;20031;-74
2021/12/12 08:47:36;;;;;;;197.32;51.25;;;;;;;7.47;100.00;101895.19;2609227;36;20130;-73
2021/12/12 08:50:21;;;;;;;185.02;50.28;;;;;;;7.54;100.00;101896.56;2630613;36;20034;-74
2021/12/12 08:52:56;;;;;;;149.35;46.35;;;;;;;7.55;100.00;101898.28;2610328;31;20146;-74
2021/12/12 08:55:32;;;;;;;169.15;50.17;;;;;;;7.59;100.00;101907.84;2608958;36;20042;-73
2021/12/12 08:58:14;;;;;;;159.18;45.40;;;;;;;7.66;100.00;101901.19;2610184;36;20031;-73
2021/12/12 09:00:48;;;;;;;150.13;45.25;;;;;;;7.72;100.00;101908.84;2624503;36;20038;-71
2021/12/12 09:03:21;;;;;;;142.77;45.40;;;;;;;7.66;100.00;101917.25;2610589;36;20134;-73
2021/12/12 09:05:49;;;;;;;144.60;42.03;;;;;;;7.69;100.00;101906.34;2609891;31;20038;-72
2021/12/12 09:08:26;;;;;;;119.15;39.30;;;;;;;7.88;100.00;101918.66;2608389;36;20158;-72
2021/12/12 09:11:01;;;;;;;134.02;43.35;;;;;;;7.86;100.00;101913.41;2609519;36;21320;-74
2021/12/12 09:13:40;;;;;;;113.53;38.90;;;;;;;7.92;100.00;101919.34;2609272;31;20050;-74
2021/12/12 09:16:14;;;;;;;111.32;36.17;;;;;;;7.99;100.00;101926.06;2609778;36;20178;-72
2021/12/12 09:18:46;;;;;;;113.72;36.70;;;;;;;7.95;100.00;101920.03;2609335;36;20053;-74
2021/12/12 09:21:26;;;;;;;101.88;36.08;;;;;;;7.97;100.00;101928.81;2610247;36;20447;-74
2021/12/12 09:24:06;;;;;;;;;;;;;;;8.01;100.00;101929.47;2609780;31;20080;-73
2021/12/12 09:26:43;;;;;;;103.50;34.47;;;;;;;8.04;100.00;101934.69;2610257;36;20535;-72
2021/12/12 09:37:42;;;;;;;100.35;34.95;;;;;;;8.25;100.00;101940.56;2608329;54;20073;-72
2021/12/12 09:40:18;;;;;;;97.43;34.75;;;;;;;8.24;100.00;101941.50;2609986;31;20153;-72
2021/12/12 09:46:40;;;;;;;109.13;35.50;;;;;;;8.33;100.00;101950.81;2607265;31;20041;-73
2021/12/12 09:55:27;;;;;;;95.50;33.25;;;;;;;8.49;100.00;101950.75;2609350;36;20034;-74
2021/12/12 09:58:03;;;;;;;90.40;31.00;;;;;;;8.54;100.00;101954.03;2609565;31;20129;-73
2021/12/12 10:00:43;;;;;;;88.05;30.98;;;;;;;8.49;100.00;101945.38;2626127;36;20038;-73
2021/12/12 10:03:31;;;;;;;91.18;31.98;;;;;;;8.55;100.00;101955.72;2607274;36;20176;-73
2021/12/12 10:51:59;;;;;;;68.38;28.48;;;;;;;9.02;100.00;101954.53;2606793;54;21046;-74
2021/12/12 11:00:23;;;;;;;69.32;27.60;;;;;;;9.08;100.00;101970.25;2611284;36;20034;-74
2021/12/12 11:06:22;;;;;;;62.90;26.55;;;;;;;9.07;100.00;101957.78;2607174;36;20619;-74
2021/12/12 11:09:53;;;;;;;54.45;25.38;;;;;;;9.11;100.00;101948.56;2608454;36;20057;-74
2021/12/12 11:22:20;;;;;;;48.00;23.10;;;;;;;9.08;100.00;101958.63;2607350;36;20063;-72
2021/12/12 11:33:08;;;;;;;45.25;22.33;;;;;;;9.09;100.00;101958.53;2664873;36;20071;-72
2021/12/12 11:48:15;;;;;;;46.22;24.17;;;;;;;9.42;100.00;101956.44;2612146;36;20081;-72
2021/12/12 11:56:45;;;;;;;47.35;24.25;;;;;;;9.58;100.00;101957.13;2612413;31;20527;-73
2021/12/12 16:25:52;;;;;;;83.35;36.38;;;;;;;10.37;100.00;102156.34;2611523;54;19953;-61
2021/12/12 16:28:23;;;;;;;104.45;41.38;;;;;;;10.30;100.00;102155.00;2612952;36;20041;-62
2021/12/12 16:30:59;;;;;;;100.63;36.70;;;;;;;10.33;100.00;102166.47;2612747;36;20444;-61
2021/12/12 16:33:32;;;;;;;98.95;35.75;;;;;;;10.32;100.00;102158.44;2612856;36;20185;-62
2021/12/12 16:36:02;;;;;;;93.47;33.90;;;;;;;10.34;100.00;102161.94;2613072;36;20554;-62
2021/12/12 16:38:33;;;;;;;96.53;37.25;;;;;;;10.36;100.00;102167.22;2611813;36;20126;-62
2021/12/12 16:41:08;;;;;;;98.50;44.55;;;;;;;10.36;100.00;102170.75;2613158;36;20626;-62
2021/12/12 16:43:41;;;;;;;100.88;43.80;;;;;;;10.40;100.00;102171.44;2611386;36;20158;-62
2021/12/12 16:46:11;;;;;;;96.75;37.15;;;;;;;10.49;100.00;102171.66;2612888;36;20647;-62
2021/12/12 16:48:45;;;;;;;103.85;37.60;;;;;;;10.50;100.00;102170.69;2613741;36;20030;-62
2021/12/12 16:51:22;;;;;;;105.45;47.25;;;;;;;10.48;100.00;102177.13;2613444;36;20313;-62
2021/12/12 16:53:54;;;;;;;84.82;32.30;;;;;;;10.53;100.00;102183.09;2614005;36;20156;-62
2021/12/12 16:56:27;;;;;;;84.10;33.75;;;;;;;10.44;100.00;102178.34;2614276;31;20062;-63
2021/12/12 16:58:59;;;;;;;92.30;33.83;;;;;;;10.45;100.00;102188.13;2613521;36;20113;-62
2021/12/12 17:01:31;;;;;;;90.68;32.30;;;;;;;10.49;100.00;102190.50;2614775;36;20029;-62
2021/12/12 17:04:05;;;;;;;102.18;44.83;;;;;;;10.57;100.00;102191.81;2611751;36;20035;-63
2021/12/12 17:06:38;;;;;;;98.32;36.70;;;;;;;10.46;100.00;102190.72;2610836;36;20121;-62
2021/12/12 17:09:14;;;;;;;102.82;37.90;;;;;;;10.55;100.00;102188.38;2612559;36;20175;-62
2021/12/12 17:11:51;;;;;;;107.05;38.72;;;;;;;10.56;100.00;102190.09;2614495;36;20167;-63
2021/12/12 17:14:22;;;;;;;112.45;39.08;;;;;;;10.55;100.00;102193.75;2613477;36;20150;-63
2021/12/12 17:16:54;;;;;;;104.07;36.60;;;;;;;10.58;100.00;102191.72;2614129;31;20118;-62
2021/12/12 17:19:29;;;;;;;110.22;48.55;;;;;;;10.63;100.00;102199.47;2612337;36;20038;-62
2021/12/12 17:21:58;;;;;;;103.40;41.45;;;;;;;10.62;100.00;102200.47;2612571;36;20035;-63
2021/12/12 17:24:28;;;;;;;;;;;;;;;10.49;100.00;102195.03;2613307;36;20048;-63
2021/12/12 17:27:12;;;;;;;85.75;35.70;;;;;;;10.54;100.00;102203.69;2613313;31;20006;-62
2021/12/12 17:29:45;;;;;;;101.57;41.25;;;;;;;10.43;100.00;102203.53;2613688;36;20106;-62
2021/12/12 17:32:18;;;;;;;115.43;38.80;;;;;;;10.42;100.00;102202.63;2614238;31;20154;-62
2021/12/12 17:37:25;;;;;;;130.18;41.90;;;;;;;10.37;100.00;102209.31;2611728;36;20046;-62
2021/12/12 17:39:57;;;;;;;148.98;45.08;;;;;;;10.39;100.00;102210.91;2613157;36;20551;-62
2021/12/12 17:42:58;;;;;;;159.63;49.90;;;;;;;10.37;100.00;102212.00;2612846;36;20035;-62
2021/12/12 17:45:59;;;;;;;148.10;47.35;;;;;;;10.42;100.00;102213.41;2613674;36;20035;-62
2021/12/12 17:49:06;;;;;;;179.30;51.35;;;;;;;10.22;100.00;102209.31;2614149;36;20131;-62
2021/12/12 17:52:06;;;;;;;179.65;47.17;;;;;;;10.26;100.00;102210.84;2612581;36;20126;-62
2021/12/12 17:54:46;;;;;;;159.15;50.63;;;;;;;10.26;100.00;102207.28;2613395;31;20573;-62
2021/12/12 17:57:18;;;;;;;198.20;59.67;;;;;;;10.19;100.00;102209.53;2613777;36;20159;-62
2021/12/12 17:59:56;;;;;;;196.05;57.90;;;;;;;10.16;100.00;102212.41;2614777;36;20554;-62
2021/12/12 18:02:27;;;;;;;174.05;51.47;;;;;;;10.19;100.00;102214.91;2614632;31;20130;-61
2021/12/12 18:04:56;;;;;;;197.10;60.83;;;;;;;10.21;100.00;102222.88;2614150;36;20034;-62
2021/12/12 18:07:39;;;;;;;;;;;;;;;10.21;100.00;102222.88;2613492;36;20130;-61
2021/12/12 18:10:32;;;;;;;165.50;47.15;;;;;;;10.18;100.00;102224.78;2613000;36;20523;-62
2021/12/12 18:13:02;;;;;;;163.50;45.80;;;;;;;10.22;100.00;102229.97;2614958;31;20029;-61
2021/12/12 18:15:32;;;;;;;186.88;51.83;;;;;;;10.25;100.00;102241.41;2617127;36;20423;-64
2021/12/12 18:18:38;;;;;;;196.88;62.10;;;;;;;10.17;100.00;102233.84;2615165;31;20518;-62
2021/12/12 18:21:11;;;;;;;182.45;52.35;;;;;;;10.27;100.00;102238.63;2613454;36;20138;-62
2021/12/12 18:23:41;;;;;;;183.75;48.33;;;;;;;10.25;100.00;102237.88;2612373;36;20065;-62
2021/12/12 18:26:15;;;;;;;193.82;51.20;;;;;;;10.27;100.00;102233.22;2612852;36;20022;-62
2021/12/12 18:28:47;;;;;;;172.93;45.90;;;;;;;10.26;100.00;102237.75;2613238;36;20030;-62
2021/12/12 18:31:21;;;;;;;171.75;47.28;;;;;;;10.23;100.00;102240.66;2614211;36;20034;-62
2021/12/12 18:33:52;;;;;;;183.68;48.45;;;;;;;10.35;100.00;102233.63;2613586;36;20026;-62
2021/12/12 18:36:27;;;;;;;177.07;50.30;;;;;;;10.42;100.00;102232.25;2614966;31;20593;-63
2021/12/12 18:39:02;;;;;;;171.13;49.40;;;;;;;10.29;100.00;102233.97;2613367;36;20026;-62
2021/12/12 18:41:35;;;;;;;187.05;49.58;;;;;;;10.36;100.00;102235.34;2613894;36;20103;-62
2021/12/12 18:44:08;;;;;;;169.27;47.47;;;;;;;10.32;100.00;102249.94;2614685;36;20174;-63
2021/12/12 18:46:40;;;;;;;174.65;46.90;;;;;;;10.31;100.00;102245.53;2614352;36;20700;-63
2021/12/12 18:49:12;;;;;;;158.57;45.53;;;;;;;10.31;100.00;102245.53;2613441;36;20038;-63
2021/12/12 18:51:46;;;;;;;165.57;49.70;;;;;;;10.44;100.00;102238.41;2614642;36;20038;-62
2021/12/12 18:54:18;;;;;;;155.13;55.63;;;;;;;10.38;100.00;102241.50;2612471;36;20431;-62
2021/12/12 18:56:50;;;;;;;178.30;55.47;;;;;;;10.33;100.00;102243.59;2614499;36;20042;-63
2021/12/12 18:59:23;;;;;;;176.35;59.92;;;;;;;10.42;100.00;102237.63;2612875;36;20034;-62
2021/12/12 19:01:56;;;;;;;150.20;51.15;;;;;;;10.37;100.00;102244.31;2612759;36;20061;-63
2021/12/12 19:04:27;;;;;;;156.07;53.75;;;;;;;10.40;100.00;102253.03;2613601;36;20173;-63
2021/12/12 19:07:00;;;;;;;159.05;46.75;;;;;;;10.44;100.00;102246.47;2614805;36;20150;-62
2021/12/12 19:09:32;;;;;;;168.13;58.05;;;;;;;10.33;100.00;102254.34;2613858;36;20059;-62
2021/12/12 19:12:02;;;;;;;135.07;42.78;;;;;;;10.34;100.00;102261.50;2613456;36;20606;-63
2021/12/12 19:14:38;;;;;;;163.57;47.35;;;;;;;10.27;100.00;102260.16;2611257;36;20026;-62
2021/12/12 19:17:11;;;;;;;170.80;49.80;;;;;;;10.28;100.00;102259.19;2613043;31;20154;-63
2021/12/12 19:22:17;;;;;;;157.40;52.03;;;;;;;10.31;100.00;102264.38;2613421;36;20118;-62
2021/12/12 19:24:47;;;;;;;140.27;51.92;;;;;;;10.21;100.00;102261.41;2612554;36;20118;-62
2021/12/12 19:27:20;;;;;;;133.13;47.35;;;;;;;10.20;100.00;102265.03;2608491;36;20027;-63
2021/12/12 19:29:50;;;;;;;135.98;44.65;;;;;;;10.10;100.00;102277.34;2613543;36;20109;-63
2021/12/12 19:32:21;;;;;;;142.68;46.05;;;;;;;10.13;100.00;102283.44;2612058;31;20268;-63
2021/12/12 19:34:53;;;;;;;140.55;51.50;;;;;;;10.18;100.00;102281.28;2614703;36;20146;-63
2021/12/12 19:37:28;;;;;;;133.65;54.85;;;;;;;10.17;100.00;102281.38;2613619;36;20114;-63
2021/12/12 19:40:01;;;;;;;155.35;52.25;;;;;;;10.10;100.00;102280.03;2617857;31;20694;-62
2021/12/12 19:42:33;;;;;;;189.70;71.68;;;;;;;10.05;100.00;102284.88;2614765;36;20112;-63
2021/12/12 19:45:09;;;;;;;131.48;47.53;;;;;;;10.13;100.00;102283.44;2612765;31;20117;-63
2021/12/12 19:47:38;;;;;;;137.90;50.00;;;;;;;10.15;100.00;102278.78;2613862;36;20590;-63
2021/12/12 19:50:11;;;;;;;144.20;50.78;;;;;;;10.17;100.00;102287.66;2614550;31;20074;-63
2021/12/12 19:52:42;;;;;;;131.40;44.00;;;;;;;10.13;100.00;102279.88;2614375;36;20146;-62
2021/12/12 19:55:15;;;;;;;141.57;49.33;;;;;;;10.18;100.00;102275.91;2614604;31;20043;-62
2021/12/12 19:57:45;;;;;;;132.02;51.17;;;;;;;10.11;100.00;102274.56;2614925;36;20102;-62
2021/12/12 20:00:19;;;;;;;130.18;53.63;;;;;;;10.22;100.00;102273.00;2614306;36;21250;-63
2021/12/12 20:02:47;;;;;;;150.43;61.30;;;;;;;10.12;100.00;102273.63;2615072;36;20583;-63
2021/12/12 20:05:19;;;;;;;133.75;44.95;;;;;;;10.20;100.00;102277.66;2614521;36;20034;-62
2021/12/12 20:07:50;;;;;;;154.23;48.47;;;;;;;10.11;100.00;102284.47;2612683;36;20068;-62
2021/12/12 20:10:24;;;;;;;137.70;45.38;;;;;;;10.06;100.00;102282.09;2612482;36;20160;-61
2021/12/12 20:12:58;;;;;;;148.10;47.78;;;;;;;10.01;100.00;102292.25;2612557;36;20184;-62
2021/12/12 20:15:30;;;;;;;133.43;42.65;;;;;;;10.01;100.00;102289.56;2613960;36;20019;-63
2021/12/12 20:17:59;;;;;;;137.98;50.17;;;;;;;10.10;100.00;102299.75;2614036;36;20181;-62
2021/12/12 20:20:31;;;;;;;119.35;45.08;;;;;;;10.14;100.00;102298.63;2613379;36;20031;-62
2021/12/12 20:23:08;;;;;;;128.65;42.53;;;;;;;10.17;100.00;102292.16;2613660;36;20543;-63
2021/12/12 20:25:40;;;;;;;128.13;48.63;;;;;;;10.16;100.00;102299.38;2613769;31;20122;-62
2021/12/12 20:28:11;;;;;;;111.45;41.65;;;;;;;10.13;100.00;102299.56;2614168;31;20126;-62
2021/12/12 20:30:44;;;;;;;133.48;51.40;;;;;;;10.09;100.00;102303.41;2613872;36;20113;-62
2021/12/12 20:33:17;;;;;;;127.88;43.25;;;;;;;10.17;100.00;102314.56;2613405;36;20037;-63
2021/12/12 20:35:49;;;;;;;119.30;45.92;;;;;;;10.21;100.00;102299.06;2613853;36;20126;-62
2021/12/12 20:38:27;;;;;;;128.50;45.58;;;;;;;10.20;100.00;102301.88;2613194;36;20526;-62
2021/12/12 20:40:59;;;;;;;114.60;43.73;;;;;;;10.14;100.00;102314.75;2614687;36;20026;-63
2021/12/12 20:43:32;;;;;;;123.15;46.10;;;;;;;10.21;100.00;102315.22;2613823;36;20945;-62
2021/12/12 20:46:07;;;;;;;140.02;51.67;;;;;;;10.06;100.00;102319.75;2613747;36;20022;-62
2021/12/12 20:48:41;;;;;;;124.70;45.72;;;;;;;10.16;100.00;102312.81;2613927;36;20042;-62
2021/12/12 20:51:14;;;;;;;132.65;50.33;;;;;;;10.15;100.00;102315.63;2614450;36;20054;-62
2021/12/12 20:53:48;;;;;;;117.80;45.72;;;;;;;10.22;100.00;102310.69;2614259;36;20178;-62
2021/12/12 20:56:20;;;;;;;120.20;40.60;;;;;;;10.31;100.00;102315.50;2614448;36;20055;-63
2021/12/12 20:58:53;;;;;;;111.53;39.95;;;;;;;10.32;100.00;102312.72;2614198;31;20162;-62
2021/12/12 21:01:24;;;;;;;100.75;39.58;;;;;;;10.29;100.00;102314.72;2614361;36;20162;-63
2021/12/12 21:03:58;;;;;;;113.80;41.53;;;;;;;10.28;100.00;102321.09;2614621;36;20133;-62
2021/12/12 21:06:29;;;;;;;116.05;41.40;;;;;;;10.31;100.00;102307.44;2612492;36;20825;-62
2021/12/12 21:09:02;;;;;;;119.45;40.78;;;;;;;10.27;100.00;102314.81;2612028;36;20030;-62
2021/12/12 21:11:33;;;;;;;118.78;39.75;;;;;;;10.28;100.00;102319.25;2614767;36;20392;-63
2021/12/12 21:14:04;;;;;;;114.95;41.65;;;;;;;10.31;100.00;102315.50;2613177;36;20162;-60
2021/12/12 21:16:33;;;;;;;126.65;42.80;;;;;;;10.23;100.00;102323.19;2610197;36;20031;-61
2021/12/12 21:19:08;;;;;;;107.82;44.47;;;;;;;10.29;100.00;102322.78;2613579;36;20431;-62
2021/12/12 21:21:52;;;;;;;118.57;43.28;;;;;;;10.27;100.00;102316.66;2612301;36;20030;-62
2021/12/12 21:24:25;;;;;;;131.57;42.50;;;;;;;10.21;100.00;102311.66;2610583;36;20030;-62
2021/12/12 21:26:57;;;;;;;112.15;41.58;;;;;;;10.27;100.00;102313.97;2614234;31;20574;-63
2021/12/12 21:29:27;;;;;;;112.70;41.67;;;;;;;10.23;100.00;102312.44;2614190;36;20026;-62